sensor_id;sensor_type;location;lat;lon;timestamp;temperature;humidity
34135;DHT22;20410;55.578;12.968;2023-08-07T00:00:36;15.00;99.90
34135;DHT22;20410;55.578;12.968;2023-08-07T00:03:02;14.90;99.90
34135;DHT22;20410;55.578;12.968;2023-08-07T00:05:28;14.80;99.90
34135;DHT22;20410;55.578;12.968;2023-08-07T00:07:53;14.80;99.90
34135;DHT22;20410;55.578;12.968;2023-08-07T00:10:19;14.80;99.90
34135;DHT22;20410;55.578;12.968;2023-08-07T00:12:44;14.80;99.90
34135;DHT22;20410;55.578;12.968;2023-08-07T00:15:10;14.90;99.90
34135;DHT22;20410;55.578;12.968;2023-08-07T00:17:37;14.80;99.90
34135;DHT22;20410;55.578;12.968;2023-08-07T00:20:03;14.80;99.90
34135;DHT22;20410;55.578;12.968;2023-08-07T00:22:28;14.80;99.90
34135;DHT22;20410;55.578;12.968;2023-08-07T00:24:54;14.80;99.90
34135;DHT22;20410;55.578;12.968;2023-08-07T00:27:19;14.90;99.90
34135;DHT22;20410;55.578;12.968;2023-08-07T00:29:45;14.90;99.90
34135;DHT22;20410;55.578;12.968;2023-08-07T00:32:10;14.90;99.90
34135;DHT22;20410;55.578;12.968;2023-08-07T00:34:36;14.90;99.90
34135;DHT22;20410;55.578;12.968;2023-08-07T00:37:02;14.80;99.90
34135;DHT22;20410;55.578;12.968;2023-08-07T00:39:27;14.90;99.90
34135;DHT22;20410;55.578;12.968;2023-08-07T00:41:53;14.80;99.90
34135;DHT22;20410;55.578;12.968;2023-08-07T00:44:19;14.80;99.90
34135;DHT22;20410;55.578;12.968;2023-08-07T00:46:45;14.80;99.90
34135;DHT22;20410;55.578;12.968;2023-08-07T00:49:12;14.70;99.90
34135;DHT22;20410;55.578;12.968;2023-08-07T00:51:39;14.80;99.90
34135;DHT22;20410;55.578;12.968;2023-08-07T00:54:05;14.80;99.90
34135;DHT22;20410;55.578;12.968;2023-08-07T00:56:32;14.80;99.90
34135;DHT22;20410;55.578;12.968;2023-08-07T00:59:01;14.80;99.90
34135;DHT22;20410;55.578;12.968;2023-08-07T01:01:27;14.80;99.90
34135;DHT22;20410;55.578;12.968;2023-08-07T01:03:53;14.80;99.90
34135;DHT22;20410;55.578;12.968;2023-08-07T01:06:18;14.80;99.90
34135;DHT22;20410;55.578;12.968;2023-08-07T01:08:45;14.80;99.90
34135;DHT22;20410;55.578;12.968;2023-08-07T01:11:39;14.60;99.90
34135;DHT22;20410;55.578;12.968;2023-08-07T01:14:37;14.60;99.90
34135;DHT22;20410;55.578;12.968;2023-08-07T01:17:11;14.60;99.90
34135;DHT22;20410;55.578;12.968;2023-08-07T01:19:39;14.50;99.90
34135;DHT22;20410;55.578;12.968;2023-08-07T01:22:10;14.60;99.90
34135;DHT22;20410;55.578;12.968;2023-08-07T01:24:38;14.60;99.90
34135;DHT22;20410;55.578;12.968;2023-08-07T01:32:17;14.60;99.90
34135;DHT22;20410;55.578;12.968;2023-08-07T01:34:45;14.60;99.90
34135;DHT22;20410;55.578;12.968;2023-08-07T01:37:12;14.50;99.90
34135;DHT22;20410;55.578;12.968;2023-08-07T01:39:39;14.60;99.90
34135;DHT22;20410;55.578;12.968;2023-08-07T01:42:06;14.60;99.90
34135;DHT22;20410;55.578;12.968;2023-08-07T01:44:32;14.60;99.90
34135;DHT22;20410;55.578;12.968;2023-08-07T01:46:58;14.60;99.90
34135;DHT22;20410;55.578;12.968;2023-08-07T01:49:23;14.70;99.90
34135;DHT22;20410;55.578;12.968;2023-08-07T01:51:49;14.70;99.90
34135;DHT22;20410;55.578;12.968;2023-08-07T01:54:14;14.70;99.90
34135;DHT22;20410;55.578;12.968;2023-08-07T01:56:40;14.70;99.90
34135;DHT22;20410;55.578;12.968;2023-08-07T01:59:06;14.80;99.90
34135;DHT22;20410;55.578;12.968;2023-08-07T02:01:31;14.80;99.90
34135;DHT22;20410;55.578;12.968;2023-08-07T02:03:57;14.80;99.90
34135;DHT22;20410;55.578;12.968;2023-08-07T02:06:22;14.90;99.90
34135;DHT22;20410;55.578;12.968;2023-08-07T02:08:48;14.90;99.90
34135;DHT22;20410;55.578;12.968;2023-08-07T02:11:13;14.90;99.90
34135;DHT22;20410;55.578;12.968;2023-08-07T02:13:39;14.90;99.90
34135;DHT22;20410;55.578;12.968;2023-08-07T02:16:04;14.80;99.90
34135;DHT22;20410;55.578;12.968;2023-08-07T02:18:30;14.80;99.90
34135;DHT22;20410;55.578;12.968;2023-08-07T02:20:55;14.80;99.90
34135;DHT22;20410;55.578;12.968;2023-08-07T02:23:21;14.80;99.90
34135;DHT22;20410;55.578;12.968;2023-08-07T02:25:47;14.70;99.90
34135;DHT22;20410;55.578;12.968;2023-08-07T02:28:13;14.70;99.90
34135;DHT22;20410;55.578;12.968;2023-08-07T02:30:39;14.70;99.90
34135;DHT22;20410;55.578;12.968;2023-08-07T02:33:04;14.70;99.90
34135;DHT22;20410;55.578;12.968;2023-08-07T02:35:30;14.70;99.90
34135;DHT22;20410;55.578;12.968;2023-08-07T02:37:55;14.70;99.90
34135;DHT22;20410;55.578;12.968;2023-08-07T02:40:21;14.70;99.90
34135;DHT22;20410;55.578;12.968;2023-08-07T02:42:46;14.70;99.90
34135;DHT22;20410;55.578;12.968;2023-08-07T02:45:12;14.70;99.90
34135;DHT22;20410;55.578;12.968;2023-08-07T02:47:37;14.70;99.90
34135;DHT22;20410;55.578;12.968;2023-08-07T02:50:03;14.70;99.90
34135;DHT22;20410;55.578;12.968;2023-08-07T02:52:29;14.70;99.90
34135;DHT22;20410;55.578;12.968;2023-08-07T02:54:55;14.80;99.90
34135;DHT22;20410;55.578;12.968;2023-08-07T02:57:20;14.80;99.90
34135;DHT22;20410;55.578;12.968;2023-08-07T02:59:46;14.80;99.90
34135;DHT22;20410;55.578;12.968;2023-08-07T03:02:11;14.90;99.90
34135;DHT22;20410;55.578;12.968;2023-08-07T03:04:37;14.90;99.90
34135;DHT22;20410;55.578;12.968;2023-08-07T03:07:03;14.90;99.90
34135;DHT22;20410;55.578;12.968;2023-08-07T03:09:28;14.90;99.90
34135;DHT22;20410;55.578;12.968;2023-08-07T03:11:54;15.00;99.90
34135;DHT22;20410;55.578;12.968;2023-08-07T03:14:19;15.00;99.90
34135;DHT22;20410;55.578;12.968;2023-08-07T03:16:45;15.00;99.90
34135;DHT22;20410;55.578;12.968;2023-08-07T03:19:11;15.00;99.90
34135;DHT22;20410;55.578;12.968;2023-08-07T03:21:36;15.10;99.90
34135;DHT22;20410;55.578;12.968;2023-08-07T03:24:02;15.00;99.90
34135;DHT22;20410;55.578;12.968;2023-08-07T03:26:28;15.00;99.90
34135;DHT22;20410;55.578;12.968;2023-08-07T03:28:53;15.10;99.90
34135;DHT22;20410;55.578;12.968;2023-08-07T03:31:19;15.00;99.90
34135;DHT22;20410;55.578;12.968;2023-08-07T03:33:44;15.10;99.90
34135;DHT22;20410;55.578;12.968;2023-08-07T03:36:10;15.10;99.90
34135;DHT22;20410;55.578;12.968;2023-08-07T03:38:36;15.20;99.90
34135;DHT22;20410;55.578;12.968;2023-08-07T03:41:01;15.10;99.90
34135;DHT22;20410;55.578;12.968;2023-08-07T03:43:27;15.10;99.90
34135;DHT22;20410;55.578;12.968;2023-08-07T03:45:56;15.10;99.90
34135;DHT22;20410;55.578;12.968;2023-08-07T03:48:22;15.10;99.90
34135;DHT22;20410;55.578;12.968;2023-08-07T03:50:47;15.20;99.90
34135;DHT22;20410;55.578;12.968;2023-08-07T03:53:13;15.20;99.90
34135;DHT22;20410;55.578;12.968;2023-08-07T03:55:38;15.20;99.90
34135;DHT22;20410;55.578;12.968;2023-08-07T03:58:05;15.20;99.90
34135;DHT22;20410;55.578;12.968;2023-08-07T04:00:30;15.20;99.90
34135;DHT22;20410;55.578;12.968;2023-08-07T04:02:56;15.20;99.90
34135;DHT22;20410;55.578;12.968;2023-08-07T04:05:21;15.20;99.90
34135;DHT22;20410;55.578;12.968;2023-08-07T04:07:47;15.30;99.90
34135;DHT22;20410;55.578;12.968;2023-08-07T04:10:12;15.30;99.90
34135;DHT22;20410;55.578;12.968;2023-08-07T04:12:38;15.30;99.90
34135;DHT22;20410;55.578;12.968;2023-08-07T04:15:04;15.20;99.90
34135;DHT22;20410;55.578;12.968;2023-08-07T04:17:30;15.20;99.90
34135;DHT22;20410;55.578;12.968;2023-08-07T04:19:55;15.20;99.90
34135;DHT22;20410;55.578;12.968;2023-08-07T04:22:21;15.20;99.90
34135;DHT22;20410;55.578;12.968;2023-08-07T04:24:46;15.30;99.90
34135;DHT22;20410;55.578;12.968;2023-08-07T04:27:12;15.30;99.90
34135;DHT22;20410;55.578;12.968;2023-08-07T04:29:38;15.30;99.90
34135;DHT22;20410;55.578;12.968;2023-08-07T04:32:04;15.30;99.90
34135;DHT22;20410;55.578;12.968;2023-08-07T04:34:29;15.30;99.90
34135;DHT22;20410;55.578;12.968;2023-08-07T04:36:55;15.30;99.90
34135;DHT22;20410;55.578;12.968;2023-08-07T04:39:21;15.30;99.90
34135;DHT22;20410;55.578;12.968;2023-08-07T04:41:48;15.30;99.90
34135;DHT22;20410;55.578;12.968;2023-08-07T04:44:15;15.30;99.90
34135;DHT22;20410;55.578;12.968;2023-08-07T04:46:41;15.30;99.90
34135;DHT22;20410;55.578;12.968;2023-08-07T04:49:06;15.30;99.90
34135;DHT22;20410;55.578;12.968;2023-08-07T04:51:32;15.30;99.90
34135;DHT22;20410;55.578;12.968;2023-08-07T04:53:58;15.20;99.90
34135;DHT22;20410;55.578;12.968;2023-08-07T04:56:23;15.20;99.90
34135;DHT22;20410;55.578;12.968;2023-08-07T04:58:49;15.20;99.90
34135;DHT22;20410;55.578;12.968;2023-08-07T05:01:14;15.20;99.90
34135;DHT22;20410;55.578;12.968;2023-08-07T05:03:41;15.20;99.90
34135;DHT22;20410;55.578;12.968;2023-08-07T05:06:06;15.20;99.90
34135;DHT22;20410;55.578;12.968;2023-08-07T05:08:32;15.10;99.90
34135;DHT22;20410;55.578;12.968;2023-08-07T05:10:57;15.10;99.90
34135;DHT22;20410;55.578;12.968;2023-08-07T05:13:23;15.10;99.90
34135;DHT22;20410;55.578;12.968;2023-08-07T05:15:49;15.20;99.90
34135;DHT22;20410;55.578;12.968;2023-08-07T05:18:15;15.10;99.90
34135;DHT22;20410;55.578;12.968;2023-08-07T05:20:41;15.10;99.90
34135;DHT22;20410;55.578;12.968;2023-08-07T05:23:06;15.10;99.90
34135;DHT22;20410;55.578;12.968;2023-08-07T05:25:32;15.10;99.90
34135;DHT22;20410;55.578;12.968;2023-08-07T05:27:58;15.00;99.90
34135;DHT22;20410;55.578;12.968;2023-08-07T05:30:23;15.10;99.90
34135;DHT22;20410;55.578;12.968;2023-08-07T05:32:49;15.10;99.90
34135;DHT22;20410;55.578;12.968;2023-08-07T05:35:14;15.20;99.90
34135;DHT22;20410;55.578;12.968;2023-08-07T05:37:40;15.20;99.90
34135;DHT22;20410;55.578;12.968;2023-08-07T05:40:06;15.20;99.90
34135;DHT22;20410;55.578;12.968;2023-08-07T05:42:32;15.20;99.90
34135;DHT22;20410;55.578;12.968;2023-08-07T05:44:58;15.30;99.90
34135;DHT22;20410;55.578;12.968;2023-08-07T05:47:24;15.30;99.90
34135;DHT22;20410;55.578;12.968;2023-08-07T05:49:49;15.40;99.90
34135;DHT22;20410;55.578;12.968;2023-08-07T05:52:15;15.40;99.90
34135;DHT22;20410;55.578;12.968;2023-08-07T05:54:41;15.40;99.90
34135;DHT22;20410;55.578;12.968;2023-08-07T05:57:06;15.40;99.90
34135;DHT22;20410;55.578;12.968;2023-08-07T05:59:32;15.40;99.90
34135;DHT22;20410;55.578;12.968;2023-08-07T06:01:59;15.40;99.90
34135;DHT22;20410;55.578;12.968;2023-08-07T06:04:25;15.50;99.90
34135;DHT22;20410;55.578;12.968;2023-08-07T06:06:51;15.40;99.90
34135;DHT22;20410;55.578;12.968;2023-08-07T06:09:16;15.40;99.90
34135;DHT22;20410;55.578;12.968;2023-08-07T06:11:42;15.40;99.90
34135;DHT22;20410;55.578;12.968;2023-08-07T06:14:08;15.40;99.90
34135;DHT22;20410;55.578;12.968;2023-08-07T06:16:33;15.40;99.90
34135;DHT22;20410;55.578;12.968;2023-08-07T06:18:59;15.30;99.90
34135;DHT22;20410;55.578;12.968;2023-08-07T06:21:25;15.30;99.90
34135;DHT22;20410;55.578;12.968;2023-08-07T06:23:51;15.30;99.90
34135;DHT22;20410;55.578;12.968;2023-08-07T06:26:17;15.30;99.90
34135;DHT22;20410;55.578;12.968;2023-08-07T06:28:42;15.30;99.90
34135;DHT22;20410;55.578;12.968;2023-08-07T06:31:09;15.20;99.90
34135;DHT22;20410;55.578;12.968;2023-08-07T06:33:36;15.30;99.90
34135;DHT22;20410;55.578;12.968;2023-08-07T06:36:02;15.20;99.90
34135;DHT22;20410;55.578;12.968;2023-08-07T06:38:28;15.20;99.90
34135;DHT22;20410;55.578;12.968;2023-08-07T06:40:54;15.30;99.90
34135;DHT22;20410;55.578;12.968;2023-08-07T06:43:19;15.30;99.90
34135;DHT22;20410;55.578;12.968;2023-08-07T06:45:51;15.30;99.90
34135;DHT22;20410;55.578;12.968;2023-08-07T06:48:18;15.30;99.90
34135;DHT22;20410;55.578;12.968;2023-08-07T06:50:43;15.20;99.90
34135;DHT22;20410;55.578;12.968;2023-08-07T06:53:09;15.30;99.90
34135;DHT22;20410;55.578;12.968;2023-08-07T06:55:35;15.30;99.90
34135;DHT22;20410;55.578;12.968;2023-08-07T06:58:00;15.30;99.90
34135;DHT22;20410;55.578;12.968;2023-08-07T07:00:26;15.40;99.90
34135;DHT22;20410;55.578;12.968;2023-08-07T07:02:51;15.40;99.90
34135;DHT22;20410;55.578;12.968;2023-08-07T07:05:18;15.40;99.90
34135;DHT22;20410;55.578;12.968;2023-08-07T07:07:44;15.50;99.90
34135;DHT22;20410;55.578;12.968;2023-08-07T07:10:09;15.50;99.90
34135;DHT22;20410;55.578;12.968;2023-08-07T07:12:35;15.50;99.90
34135;DHT22;20410;55.578;12.968;2023-08-07T07:15:01;15.50;99.90
34135;DHT22;20410;55.578;12.968;2023-08-07T07:17:26;15.50;99.90
34135;DHT22;20410;55.578;12.968;2023-08-07T07:19:52;15.50;99.90
34135;DHT22;20410;55.578;12.968;2023-08-07T07:22:17;15.60;99.90
34135;DHT22;20410;55.578;12.968;2023-08-07T07:24:43;15.60;99.90
34135;DHT22;20410;55.578;12.968;2023-08-07T07:27:08;15.50;99.90
34135;DHT22;20410;55.578;12.968;2023-08-07T07:29:34;15.60;99.90
34135;DHT22;20410;55.578;12.968;2023-08-07T07:32:00;15.50;99.90
34135;DHT22;20410;55.578;12.968;2023-08-07T07:34:25;15.50;99.90
34135;DHT22;20410;55.578;12.968;2023-08-07T07:36:51;15.60;99.90
34135;DHT22;20410;55.578;12.968;2023-08-07T07:39:17;15.50;99.90
34135;DHT22;20410;55.578;12.968;2023-08-07T07:41:42;15.50;99.90
34135;DHT22;20410;55.578;12.968;2023-08-07T07:44:08;15.50;99.90
34135;DHT22;20410;55.578;12.968;2023-08-07T07:46:34;15.50;99.90
34135;DHT22;20410;55.578;12.968;2023-08-07T07:49:00;15.50;99.90
34135;DHT22;20410;55.578;12.968;2023-08-07T07:51:26;15.40;99.90
34135;DHT22;20410;55.578;12.968;2023-08-07T07:53:53;15.40;99.90
34135;DHT22;20410;55.578;12.968;2023-08-07T07:56:18;15.40;99.90
34135;DHT22;20410;55.578;12.968;2023-08-07T07:58:44;15.40;99.90
34135;DHT22;20410;55.578;12.968;2023-08-07T08:01:10;15.30;99.90
34135;DHT22;20410;55.578;12.968;2023-08-07T08:03:35;15.30;99.90
34135;DHT22;20410;55.578;12.968;2023-08-07T08:06:01;15.30;99.90
34135;DHT22;20410;55.578;12.968;2023-08-07T08:08:26;15.30;99.90
34135;DHT22;20410;55.578;12.968;2023-08-07T08:10:52;15.30;99.90
34135;DHT22;20410;55.578;12.968;2023-08-07T08:13:18;15.30;99.90
34135;DHT22;20410;55.578;12.968;2023-08-07T08:15:44;15.30;99.90
34135;DHT22;20410;55.578;12.968;2023-08-07T08:18:10;15.30;99.90
34135;DHT22;20410;55.578;12.968;2023-08-07T08:20:37;15.30;99.90
34135;DHT22;20410;55.578;12.968;2023-08-07T08:23:02;15.30;99.90
34135;DHT22;20410;55.578;12.968;2023-08-07T08:25:28;15.20;99.90
34135;DHT22;20410;55.578;12.968;2023-08-07T08:27:53;15.20;99.90
34135;DHT22;20410;55.578;12.968;2023-08-07T08:30:20;15.20;99.90
34135;DHT22;20410;55.578;12.968;2023-08-07T08:32:45;15.20;99.90
34135;DHT22;20410;55.578;12.968;2023-08-07T08:35:11;15.30;99.90
34135;DHT22;20410;55.578;12.968;2023-08-07T08:37:37;15.30;99.90
34135;DHT22;20410;55.578;12.968;2023-08-07T08:40:02;15.30;99.90
34135;DHT22;20410;55.578;12.968;2023-08-07T08:42:28;15.40;99.90
34135;DHT22;20410;55.578;12.968;2023-08-07T08:44:58;15.30;99.90
34135;DHT22;20410;55.578;12.968;2023-08-07T08:47:26;15.30;99.90
34135;DHT22;20410;55.578;12.968;2023-08-07T08:50:14;15.30;99.90
34135;DHT22;20410;55.578;12.968;2023-08-07T08:52:44;15.30;99.90
34135;DHT22;20410;55.578;12.968;2023-08-07T08:55:11;15.30;99.90
34135;DHT22;20410;55.578;12.968;2023-08-07T08:57:38;15.30;99.90
34135;DHT22;20410;55.578;12.968;2023-08-07T09:00:06;15.20;99.90
34135;DHT22;20410;55.578;12.968;2023-08-07T09:02:42;15.20;99.90
34135;DHT22;20410;55.578;12.968;2023-08-07T09:05:08;15.20;99.90
34135;DHT22;20410;55.578;12.968;2023-08-07T09:07:35;15.20;99.90
34135;DHT22;20410;55.578;12.968;2023-08-07T09:10:02;15.20;99.90
34135;DHT22;20410;55.578;12.968;2023-08-07T09:12:29;15.20;99.90
34135;DHT22;20410;55.578;12.968;2023-08-07T09:14:58;15.10;99.90
34135;DHT22;20410;55.578;12.968;2023-08-07T09:17:28;15.10;99.90
34135;DHT22;20410;55.578;12.968;2023-08-07T09:19:57;15.20;99.90
34135;DHT22;20410;55.578;12.968;2023-08-07T09:22:23;15.20;99.90
34135;DHT22;20410;55.578;12.968;2023-08-07T09:24:49;15.20;99.90
34135;DHT22;20410;55.578;12.968;2023-08-07T09:27:15;15.30;99.90
34135;DHT22;20410;55.578;12.968;2023-08-07T09:29:41;15.30;99.90
34135;DHT22;20410;55.578;12.968;2023-08-07T09:32:12;15.30;99.90
34135;DHT22;20410;55.578;12.968;2023-08-07T09:34:42;15.30;99.90
34135;DHT22;20410;55.578;12.968;2023-08-07T09:37:08;15.20;99.90
34135;DHT22;20410;55.578;12.968;2023-08-07T09:39:35;15.20;99.90
34135;DHT22;20410;55.578;12.968;2023-08-07T09:42:02;15.20;99.90
34135;DHT22;20410;55.578;12.968;2023-08-07T09:44:35;15.20;99.90
34135;DHT22;20410;55.578;12.968;2023-08-07T09:47:14;15.20;99.90
34135;DHT22;20410;55.578;12.968;2023-08-07T09:49:40;15.30;99.90
34135;DHT22;20410;55.578;12.968;2023-08-07T09:52:08;15.30;99.90
34135;DHT22;20410;55.578;12.968;2023-08-07T09:54:36;15.20;99.90
34135;DHT22;20410;55.578;12.968;2023-08-07T09:57:03;15.20;99.90
34135;DHT22;20410;55.578;12.968;2023-08-07T09:59:29;15.20;99.90
34135;DHT22;20410;55.578;12.968;2023-08-07T10:01:55;15.20;99.90
34135;DHT22;20410;55.578;12.968;2023-08-07T10:04:21;15.20;99.90
34135;DHT22;20410;55.578;12.968;2023-08-07T10:06:48;15.20;99.90
34135;DHT22;20410;55.578;12.968;2023-08-07T10:09:13;15.20;99.90
34135;DHT22;20410;55.578;12.968;2023-08-07T10:11:40;15.20;99.90
34135;DHT22;20410;55.578;12.968;2023-08-07T10:14:06;15.20;99.90
34135;DHT22;20410;55.578;12.968;2023-08-07T10:16:33;15.20;99.90
34135;DHT22;20410;55.578;12.968;2023-08-07T10:19:05;15.20;99.90
34135;DHT22;20410;55.578;12.968;2023-08-07T10:21:31;15.10;99.90
34135;DHT22;20410;55.578;12.968;2023-08-07T10:24:00;15.00;99.90
34135;DHT22;20410;55.578;12.968;2023-08-07T10:26:27;15.00;99.90
34135;DHT22;20410;55.578;12.968;2023-08-07T10:28:52;15.00;99.90
34135;DHT22;20410;55.578;12.968;2023-08-07T10:31:20;14.90;99.90
34135;DHT22;20410;55.578;12.968;2023-08-07T10:33:47;14.90;99.90
34135;DHT22;20410;55.578;12.968;2023-08-07T10:36:16;14.90;99.90
34135;DHT22;20410;55.578;12.968;2023-08-07T10:38:42;14.90;99.90
34135;DHT22;20410;55.578;12.968;2023-08-07T10:41:18;15.00;99.90
34135;DHT22;20410;55.578;12.968;2023-08-07T10:43:44;15.00;99.90
34135;DHT22;20410;55.578;12.968;2023-08-07T10:46:19;15.00;99.90
34135;DHT22;20410;55.578;12.968;2023-08-07T10:48:46;15.10;99.90
34135;DHT22;20410;55.578;12.968;2023-08-07T10:51:17;15.10;99.90
34135;DHT22;20410;55.578;12.968;2023-08-07T10:53:48;15.10;99.90
34135;DHT22;20410;55.578;12.968;2023-08-07T10:56:19;15.20;99.90
34135;DHT22;20410;55.578;12.968;2023-08-07T10:58:54;15.20;99.90
34135;DHT22;20410;55.578;12.968;2023-08-07T11:01:21;15.20;99.90
34135;DHT22;20410;55.578;12.968;2023-08-07T11:03:53;15.30;99.90
34135;DHT22;20410;55.578;12.968;2023-08-07T11:06:25;15.30;99.90
34135;DHT22;20410;55.578;12.968;2023-08-07T11:08:56;15.20;99.90
34135;DHT22;20410;55.578;12.968;2023-08-07T11:11:22;15.20;99.90
34135;DHT22;20410;55.578;12.968;2023-08-07T11:13:48;15.20;99.90
34135;DHT22;20410;55.578;12.968;2023-08-07T11:16:14;15.30;99.90
34135;DHT22;20410;55.578;12.968;2023-08-07T11:18:39;15.20;99.90
34135;DHT22;20410;55.578;12.968;2023-08-07T11:21:07;15.30;99.90
34135;DHT22;20410;55.578;12.968;2023-08-07T11:23:33;15.30;99.90
34135;DHT22;20410;55.578;12.968;2023-08-07T11:25:58;15.30;99.90
34135;DHT22;20410;55.578;12.968;2023-08-07T11:28:24;15.30;99.90
34135;DHT22;20410;55.578;12.968;2023-08-07T11:30:51;15.30;99.90
34135;DHT22;20410;55.578;12.968;2023-08-07T11:33:18;15.30;99.90
34135;DHT22;20410;55.578;12.968;2023-08-07T11:35:45;15.30;99.90
34135;DHT22;20410;55.578;12.968;2023-08-07T11:38:11;15.40;99.90
34135;DHT22;20410;55.578;12.968;2023-08-07T11:40:36;15.30;99.90
34135;DHT22;20410;55.578;12.968;2023-08-07T11:43:02;15.40;99.90
34135;DHT22;20410;55.578;12.968;2023-08-07T11:45:28;15.40;99.90
34135;DHT22;20410;55.578;12.968;2023-08-07T11:47:54;15.40;99.90
34135;DHT22;20410;55.578;12.968;2023-08-07T11:50:22;15.40;99.90
34135;DHT22;20410;55.578;12.968;2023-08-07T11:52:48;15.40;99.90
34135;DHT22;20410;55.578;12.968;2023-08-07T11:55:17;15.40;99.90
34135;DHT22;20410;55.578;12.968;2023-08-07T11:57:46;15.50;99.90
34135;DHT22;20410;55.578;12.968;2023-08-07T12:00:12;15.60;99.90
34135;DHT22;20410;55.578;12.968;2023-08-07T12:02:44;15.60;99.90
34135;DHT22;20410;55.578;12.968;2023-08-07T12:05:10;15.70;99.90
34135;DHT22;20410;55.578;12.968;2023-08-07T12:07:39;15.70;99.90
34135;DHT22;20410;55.578;12.968;2023-08-07T12:10:09;15.70;99.90
34135;DHT22;20410;55.578;12.968;2023-08-07T12:12:38;15.70;99.90
34135;DHT22;20410;55.578;12.968;2023-08-07T12:15:08;15.70;99.90
34135;DHT22;20410;55.578;12.968;2023-08-07T12:17:35;15.80;99.90
34135;DHT22;20410;55.578;12.968;2023-08-07T12:20:04;15.80;99.90
34135;DHT22;20410;55.578;12.968;2023-08-07T12:22:32;15.80;99.90
34135;DHT22;20410;55.578;12.968;2023-08-07T12:24:57;15.90;99.90
34135;DHT22;20410;55.578;12.968;2023-08-07T12:27:23;16.00;99.90
34135;DHT22;20410;55.578;12.968;2023-08-07T12:29:48;16.00;99.90
34135;DHT22;20410;55.578;12.968;2023-08-07T12:32:14;16.10;99.90
34135;DHT22;20410;55.578;12.968;2023-08-07T12:34:39;16.10;99.90
34135;DHT22;20410;55.578;12.968;2023-08-07T12:37:06;16.20;99.90
34135;DHT22;20410;55.578;12.968;2023-08-07T12:39:31;16.20;99.90
34135;DHT22;20410;55.578;12.968;2023-08-07T12:41:57;16.30;99.90
34135;DHT22;20410;55.578;12.968;2023-08-07T12:44:23;16.30;99.90
34135;DHT22;20410;55.578;12.968;2023-08-07T12:46:49;16.30;99.90
34135;DHT22;20410;55.578;12.968;2023-08-07T12:49:15;16.40;99.90
34135;DHT22;20410;55.578;12.968;2023-08-07T12:51:43;16.50;99.90
34135;DHT22;20410;55.578;12.968;2023-08-07T12:54:08;16.50;99.90
34135;DHT22;20410;55.578;12.968;2023-08-07T12:56:34;16.50;99.90
34135;DHT22;20410;55.578;12.968;2023-08-07T12:59:00;16.50;99.90
34135;DHT22;20410;55.578;12.968;2023-08-07T13:01:25;16.50;99.90
34135;DHT22;20410;55.578;12.968;2023-08-07T13:03:51;16.50;99.90
34135;DHT22;20410;55.578;12.968;2023-08-07T13:06:17;16.40;99.90
34135;DHT22;20410;55.578;12.968;2023-08-07T13:08:43;16.40;99.90
34135;DHT22;20410;55.578;12.968;2023-08-07T13:11:09;16.50;99.90
34135;DHT22;20410;55.578;12.968;2023-08-07T13:13:34;16.50;99.90
34135;DHT22;20410;55.578;12.968;2023-08-07T13:16:00;16.50;99.90
34135;DHT22;20410;55.578;12.968;2023-08-07T13:18:25;16.50;99.90
34135;DHT22;20410;55.578;12.968;2023-08-07T13:20:51;16.50;99.90
34135;DHT22;20410;55.578;12.968;2023-08-07T13:23:16;16.50;99.90
34135;DHT22;20410;55.578;12.968;2023-08-07T13:25:42;16.50;99.90
34135;DHT22;20410;55.578;12.968;2023-08-07T13:28:07;16.50;99.90
34135;DHT22;20410;55.578;12.968;2023-08-07T13:30:33;16.50;99.90
34135;DHT22;20410;55.578;12.968;2023-08-07T13:32:59;16.50;99.90
34135;DHT22;20410;55.578;12.968;2023-08-07T13:35:25;16.60;99.90
34135;DHT22;20410;55.578;12.968;2023-08-07T13:37:50;16.60;99.90
34135;DHT22;20410;55.578;12.968;2023-08-07T13:40:16;16.60;99.90
34135;DHT22;20410;55.578;12.968;2023-08-07T13:42:41;16.60;99.90
34135;DHT22;20410;55.578;12.968;2023-08-07T13:45:07;16.60;99.90
34135;DHT22;20410;55.578;12.968;2023-08-07T13:47:35;16.60;99.90
34135;DHT22;20410;55.578;12.968;2023-08-07T13:50:01;16.60;99.90
34135;DHT22;20410;55.578;12.968;2023-08-07T13:52:27;16.60;99.90
34135;DHT22;20410;55.578;12.968;2023-08-07T13:54:53;16.60;99.90
34135;DHT22;20410;55.578;12.968;2023-08-07T13:57:18;16.50;99.90
34135;DHT22;20410;55.578;12.968;2023-08-07T13:59:44;16.50;99.90
34135;DHT22;20410;55.578;12.968;2023-08-07T14:02:10;16.50;99.90
34135;DHT22;20410;55.578;12.968;2023-08-07T14:04:35;16.40;99.90
34135;DHT22;20410;55.578;12.968;2023-08-07T14:07:02;16.40;99.90
34135;DHT22;20410;55.578;12.968;2023-08-07T14:09:28;16.40;99.90
34135;DHT22;20410;55.578;12.968;2023-08-07T14:11:53;16.40;99.90
34135;DHT22;20410;55.578;12.968;2023-08-07T14:14:19;16.50;99.90
34135;DHT22;20410;55.578;12.968;2023-08-07T14:16:44;16.50;99.90
34135;DHT22;20410;55.578;12.968;2023-08-07T14:19:10;16.50;99.90
34135;DHT22;20410;55.578;12.968;2023-08-07T14:21:36;16.50;99.90
34135;DHT22;20410;55.578;12.968;2023-08-07T14:24:01;16.50;99.90
34135;DHT22;20410;55.578;12.968;2023-08-07T14:26:27;16.50;99.90
34135;DHT22;20410;55.578;12.968;2023-08-07T14:28:52;16.50;99.90
34135;DHT22;20410;55.578;12.968;2023-08-07T14:31:18;16.40;99.90
34135;DHT22;20410;55.578;12.968;2023-08-07T14:33:43;16.30;99.90
34135;DHT22;20410;55.578;12.968;2023-08-07T14:36:09;16.30;99.90
34135;DHT22;20410;55.578;12.968;2023-08-07T14:38:35;16.40;99.90
34135;DHT22;20410;55.578;12.968;2023-08-07T14:41:00;16.40;99.90
34135;DHT22;20410;55.578;12.968;2023-08-07T14:43:31;16.40;99.90
34135;DHT22;20410;55.578;12.968;2023-08-07T14:45:57;16.40;99.90
34135;DHT22;20410;55.578;12.968;2023-08-07T14:48:23;16.30;99.90
34135;DHT22;20410;55.578;12.968;2023-08-07T14:50:49;16.30;99.90
34135;DHT22;20410;55.578;12.968;2023-08-07T14:53:14;16.20;99.90
34135;DHT22;20410;55.578;12.968;2023-08-07T14:55:40;16.20;99.90
34135;DHT22;20410;55.578;12.968;2023-08-07T14:58:07;16.20;99.90
34135;DHT22;20410;55.578;12.968;2023-08-07T15:00:32;16.20;99.90
34135;DHT22;20410;55.578;12.968;2023-08-07T15:02:58;16.20;99.90
34135;DHT22;20410;55.578;12.968;2023-08-07T15:05:23;16.10;99.90
34135;DHT22;20410;55.578;12.968;2023-08-07T15:07:49;16.10;99.90
34135;DHT22;20410;55.578;12.968;2023-08-07T15:10:14;16.10;99.90
34135;DHT22;20410;55.578;12.968;2023-08-07T15:12:40;16.10;99.90
34135;DHT22;20410;55.578;12.968;2023-08-07T15:15:06;16.00;99.90